createdAt,value
2023-01-10T00:02:18.349Z,15.20
2023-01-10T00:05:04.478Z,15.52
2023-01-10T00:07:51.679Z,19.20
2023-01-10T00:10:37.437Z,16.10
2023-01-10T00:13:23.398Z,15.98
2023-01-10T00:16:09.559Z,14.43
2023-01-10T00:18:55.679Z,15.57
2023-01-10T00:21:41.399Z,17.90
2023-01-10T00:24:27.067Z,16.17
2023-01-10T00:27:12.976Z,14.60
2023-01-10T00:30:01.553Z,15.50
2023-01-10T00:32:47.396Z,13.45
2023-01-10T00:35:33.312Z,14.43
2023-01-10T00:38:19.297Z,15.20
2023-01-10T00:41:25.225Z,15.32
2023-01-10T00:44:10.922Z,13.68
2023-01-10T00:46:56.851Z,18.58
2023-01-10T00:49:42.991Z,15.30
2023-01-10T00:52:29.095Z,15.13
2023-01-10T00:55:14.791Z,15.70
2023-01-10T00:58:00.815Z,15.52
2023-01-10T01:00:47.041Z,14.20
2023-01-10T01:03:33.042Z,11.52
2023-01-10T01:06:18.884Z,17.60
2023-01-10T01:09:04.591Z,11.40
2023-01-10T01:11:50.328Z,12.60
2023-01-10T01:14:36.106Z,11.70
2023-01-10T01:17:21.746Z,11.68
2023-01-10T01:20:08.301Z,8.98
2023-01-10T01:22:54.594Z,9.73
2023-01-10T01:25:41.078Z,9.05
2023-01-10T01:28:26.867Z,8.00
2023-01-10T01:31:15.367Z,10.02
2023-01-10T01:34:01.264Z,7.82
2023-01-10T01:36:47.407Z,6.55
2023-01-10T01:39:33.303Z,7.68
2023-01-10T01:42:27.077Z,7.32
2023-01-10T01:48:18.497Z,6.00
2023-01-10T01:51:14.959Z,2.50
2023-01-10T01:54:12.119Z,3.25
2023-01-10T01:57:04.298Z,5.15
2023-01-10T01:59:52.971Z,6.85
2023-01-10T02:03:01.284Z,6.82
2023-01-10T02:05:47.769Z,7.47
2023-01-10T02:08:33.956Z,8.50
2023-01-10T02:11:21.013Z,4.20
2023-01-10T02:14:08.969Z,2.63
2023-01-10T02:16:54.604Z,2.70
2023-01-10T02:19:43.370Z,3.25
2023-01-10T02:23:05.694Z,2.88
2023-01-10T02:26:04.069Z,5.78
2023-01-10T02:28:49.893Z,5.10
2023-01-10T02:31:50.738Z,3.08
2023-01-10T02:34:45.636Z,3.08
2023-01-10T02:37:53.524Z,2.97
2023-01-10T02:41:15.658Z,6.07
2023-01-10T02:44:32.072Z,3.20
2023-01-10T02:47:19.147Z,3.05
2023-01-10T02:50:37.342Z,3.28
2023-01-10T02:53:28.956Z,3.20
2023-01-10T02:57:09.694Z,4.00
2023-01-10T03:00:13.815Z,5.93
2023-01-10T03:03:12.179Z,24.23
2023-01-10T03:06:07.935Z,18.50
2023-01-10T03:09:03.671Z,12.38
2023-01-10T03:11:52.083Z,6.65
2023-01-10T03:14:38.593Z,4.03
2023-01-10T03:17:24.760Z,3.60
2023-01-10T03:20:11.537Z,4.35
2023-01-10T03:22:57.643Z,3.03
2023-01-10T03:25:48.176Z,4.13
2023-01-10T03:28:46.299Z,3.40
2023-01-10T03:31:40.702Z,5.93
2023-01-10T03:34:26.761Z,14.98
2023-01-10T03:37:37.106Z,9.05
2023-01-10T03:40:30.524Z,16.13
2023-01-10T03:43:41.898Z,14.20
2023-01-10T03:46:54.781Z,10.65
2023-01-10T03:49:43.516Z,8.75
2023-01-10T03:52:29.951Z,5.10
2023-01-10T03:55:22.502Z,4.15
2023-01-10T03:58:08.557Z,4.13
2023-01-10T04:00:54.244Z,3.97
2023-01-10T04:03:43.112Z,3.50
2023-01-10T04:06:28.993Z,7.85
2023-01-10T04:09:15.620Z,3.40
2023-01-10T04:12:01.318Z,4.18
2023-01-10T04:14:47.271Z,3.05
2023-01-10T04:17:33.182Z,3.33
2023-01-10T04:20:18.781Z,2.72
2023-01-10T04:23:04.555Z,3.95
2023-01-10T04:25:50.193Z,4.75
2023-01-10T04:28:35.806Z,8.40
2023-01-10T04:31:22.906Z,5.18
2023-01-10T04:34:09.437Z,3.83
2023-01-10T04:36:55.349Z,4.40
2023-01-10T04:39:40.955Z,5.22
2023-01-10T04:42:26.635Z,5.40
2023-01-10T04:45:13.693Z,8.95
2023-01-10T04:48:00.226Z,9.00
2023-01-10T04:50:50.875Z,13.75
2023-01-10T04:53:36.689Z,7.40
2023-01-10T04:56:23.627Z,5.95
2023-01-10T04:59:10.478Z,4.22
2023-01-10T05:01:57.598Z,4.40
2023-01-10T05:04:43.513Z,3.80
2023-01-10T05:07:29.165Z,4.63
2023-01-10T05:10:15.146Z,5.93
2023-01-10T05:13:01.015Z,7.45
2023-01-10T05:15:46.840Z,6.10
2023-01-10T05:18:32.561Z,5.88
2023-01-10T05:21:18.494Z,5.93
2023-01-10T05:24:04.587Z,4.70
2023-01-10T05:26:50.435Z,4.60
2023-01-10T05:29:36.196Z,5.13
2023-01-10T05:32:22.072Z,6.45
2023-01-10T05:35:07.972Z,9.50
2023-01-10T05:37:54.174Z,9.70
2023-01-10T05:40:39.760Z,8.02
2023-01-10T05:43:26.342Z,11.57
2023-01-10T05:46:12.031Z,8.70
2023-01-10T05:48:57.666Z,7.53
2023-01-10T05:51:43.402Z,5.55
2023-01-10T05:54:29.847Z,5.63
2023-01-10T05:57:15.892Z,4.00
2023-01-10T06:00:04.860Z,6.78
2023-01-10T06:02:57.777Z,6.22
2023-01-10T06:05:43.460Z,10.65
2023-01-10T06:08:29.259Z,5.97
2023-01-10T06:11:15.213Z,7.32
2023-01-10T06:14:01.096Z,5.47
2023-01-10T06:16:47.274Z,6.75
2023-01-10T06:19:32.942Z,10.50
2023-01-10T06:22:18.582Z,9.18
2023-01-10T06:25:04.739Z,13.65
2023-01-10T06:27:50.784Z,9.15
2023-01-10T06:30:36.703Z,10.55
2023-01-10T06:33:22.612Z,13.25
2023-01-10T06:36:08.619Z,13.27
2023-01-10T06:38:54.335Z,14.38
2023-01-10T06:41:40.014Z,15.32
2023-01-10T06:44:25.718Z,13.02
2023-01-10T06:47:11.739Z,8.88
2023-01-10T06:49:58.103Z,8.95
2023-01-10T06:52:43.640Z,14.50
2023-01-10T06:55:29.960Z,21.33
2023-01-10T06:58:18.489Z,24.95
2023-01-10T07:01:12.903Z,20.38
2023-01-10T07:03:59.074Z,18.80
2023-01-10T07:06:45.673Z,17.65
2023-01-10T07:09:31.436Z,14.57
2023-01-10T07:12:17.024Z,16.38
2023-01-10T07:15:02.613Z,35.95
2023-01-10T07:17:48.405Z,27.48
2023-01-10T07:20:34.039Z,32.78
2023-01-10T07:23:19.698Z,24.45
2023-01-10T07:26:10.255Z,25.67
2023-01-10T07:28:56.110Z,19.55
2023-01-10T07:31:41.905Z,19.50
2023-01-10T07:34:27.780Z,18.25
2023-01-10T07:37:13.350Z,14.55
2023-01-10T07:39:59.145Z,16.95
2023-01-10T07:42:44.832Z,16.27
2023-01-10T07:45:31.116Z,15.43
2023-01-10T07:48:16.889Z,28.73
2023-01-10T07:51:03.303Z,23.48
2023-01-10T07:53:49.350Z,19.88
2023-01-10T07:56:35.157Z,18.95
2023-01-10T07:59:24.040Z,21.75
2023-01-10T08:02:11.133Z,15.63
2023-01-10T08:04:56.791Z,15.80
2023-01-10T08:07:42.653Z,18.08
2023-01-10T08:10:28.350Z,27.63
2023-01-10T08:13:18.887Z,18.83
2023-01-10T08:16:06.679Z,24.52
2023-01-10T08:18:52.639Z,19.75
2023-01-10T08:21:38.327Z,15.63
2023-01-10T08:24:23.801Z,22.17
2023-01-10T08:27:09.755Z,24.48
2023-01-10T08:29:55.698Z,32.72
2023-01-10T08:32:41.333Z,90.88
2023-01-10T08:35:27.165Z,18.15
2023-01-10T08:38:13.226Z,65.18
2023-01-10T08:40:59.246Z,48.15
2023-01-10T08:43:44.856Z,24.75
2023-01-10T08:46:30.619Z,21.25
2023-01-10T08:49:16.625Z,11.85
2023-01-10T08:52:02.691Z,19.38
2023-01-10T08:54:48.471Z,19.10
2023-01-10T08:57:34.625Z,34.75
2023-01-10T09:00:24.096Z,22.63
2023-01-10T09:03:22.085Z,21.25
2023-01-10T09:06:08.698Z,31.63
2023-01-10T09:08:54.174Z,27.48
2023-01-10T09:11:41.877Z,21.83
2023-01-10T09:14:28.093Z,20.85
2023-01-10T09:17:13.880Z,16.58
2023-01-10T09:20:00.168Z,19.10
2023-01-10T09:22:46.096Z,21.17
2023-01-10T09:25:31.630Z,23.70
2023-01-10T09:28:18.306Z,27.67
2023-01-10T09:31:04.610Z,35.22
2023-01-10T09:33:50.434Z,29.35
2023-01-10T09:36:36.248Z,16.25
2023-01-10T09:39:22.044Z,16.05
2023-01-10T09:42:29.135Z,12.75
2023-01-10T09:45:22.175Z,15.57
2023-01-10T09:48:25.047Z,27.55
2023-01-10T09:51:39.718Z,19.65
2023-01-10T09:54:28.894Z,29.42
2023-01-10T09:57:18.863Z,30.27
2023-01-10T10:00:18.381Z,46.72
2023-01-10T10:03:22.065Z,31.35
2023-01-10T10:06:12.760Z,33.20
2023-01-10T10:08:58.649Z,30.85
2023-01-10T10:12:16.550Z,35.00
2023-01-10T10:15:32.762Z,30.08
2023-01-10T10:18:28.516Z,36.95
2023-01-10T10:21:38.934Z,37.85
2023-01-10T10:24:52.588Z,49.38
2023-01-10T10:27:59.484Z,45.95
2023-01-10T10:30:51.445Z,47.10
2023-01-10T10:34:03.606Z,44.40
2023-01-10T10:37:15.867Z,40.45
2023-01-10T10:40:30.425Z,40.65
2023-01-10T10:43:21.765Z,34.75
2023-01-10T10:46:09.994Z,29.15
2023-01-10T10:49:02.120Z,26.15
2023-01-10T10:51:52.555Z,27.42
2023-01-10T10:54:38.545Z,23.85
2023-01-10T10:57:27.321Z,19.70
2023-01-10T11:00:18.821Z,31.75
2023-01-10T11:03:11.168Z,103.25
2023-01-10T11:05:57.606Z,51.45
2023-01-10T11:08:45.784Z,148.77
2023-01-10T11:11:39.083Z,41.17
2023-01-10T11:14:55.344Z,38.95
2023-01-10T11:17:41.577Z,22.85
2023-01-10T11:20:27.282Z,28.70
2023-01-10T11:23:44.074Z,21.58
2023-01-10T11:26:39.288Z,12.82
2023-01-10T11:29:39.169Z,15.10
2023-01-10T11:32:36.215Z,11.10
2023-01-10T11:35:29.616Z,6.95
2023-01-10T11:38:22.062Z,7.15
2023-01-10T11:41:34.666Z,5.38
2023-01-10T11:44:26.362Z,5.45
2023-01-10T11:47:14.945Z,7.57
2023-01-10T11:50:02.473Z,8.13
2023-01-10T11:52:49.274Z,2.22
2023-01-10T11:55:37.035Z,4.50
2023-01-10T11:58:22.962Z,1.95
2023-01-10T12:01:29.700Z,5.88
2023-01-10T12:04:17.080Z,3.00
2023-01-10T12:07:09.541Z,1.80
2023-01-10T12:09:58.278Z,2.67
2023-01-10T12:12:57.250Z,0.40
2023-01-10T12:15:43.402Z,0.65
2023-01-10T12:18:31.467Z,0.85
2023-01-10T12:21:22.255Z,1.15
2023-01-10T12:24:25.301Z,2.45
2023-01-10T12:27:13.613Z,1.40
2023-01-10T12:30:01.765Z,0.93
2023-01-10T12:32:54.535Z,1.13
2023-01-10T12:35:45.455Z,1.20
2023-01-10T12:39:11.354Z,1.58
2023-01-10T12:42:36.897Z,1.25
2023-01-10T12:45:27.068Z,1.90
2023-01-10T12:48:17.873Z,1.77
2023-01-10T12:51:08.292Z,13.10
2023-01-10T12:53:56.843Z,1.15
2023-01-10T12:56:43.702Z,1.70
2023-01-10T12:59:39.534Z,4.00
2023-01-10T13:02:27.275Z,0.77
2023-01-10T13:05:25.464Z,1.00
2023-01-10T13:08:13.771Z,1.67
2023-01-10T13:11:00.622Z,1.05
2023-01-10T13:13:52.400Z,0.70
2023-01-10T13:16:58.846Z,0.98
2023-01-10T13:20:25.284Z,9.07
2023-01-10T13:23:30.639Z,2.40
2023-01-10T13:29:03.985Z,4.32
2023-01-10T13:31:51.173Z,1.65
2023-01-10T13:34:36.886Z,1.77
2023-01-10T13:37:25.069Z,2.97
2023-01-10T13:40:24.493Z,2.05
2023-01-10T13:43:35.177Z,1.63
2023-01-10T13:46:21.285Z,2.25
2023-01-10T13:49:10.167Z,0.93
2023-01-10T13:52:31.717Z,3.10
2023-01-10T13:55:34.638Z,1.70
2023-01-10T13:58:43.647Z,2.22
2023-01-10T14:01:54.461Z,0.88
2023-01-10T14:04:47.486Z,4.65
2023-01-10T14:07:55.030Z,1.40
2023-01-10T14:10:40.770Z,1.63
2023-01-10T14:13:26.555Z,1.75
2023-01-10T14:16:34.567Z,1.27
2023-01-10T14:19:28.671Z,1.27
2023-01-10T14:22:29.513Z,1.42
2023-01-10T14:25:21.347Z,2.70
2023-01-10T14:28:28.927Z,1.00
2023-01-10T14:31:23.729Z,34.88
2023-01-10T14:34:11.889Z,2.28
2023-01-10T14:37:16.979Z,2.90
2023-01-10T14:40:15.823Z,1.70
2023-01-10T14:43:03.728Z,2.35
2023-01-10T14:46:03.926Z,1.85
2023-01-10T14:48:53.769Z,2.42
2023-01-10T14:51:39.819Z,1.60
2023-01-10T14:54:29.502Z,1.35
2023-01-10T14:57:21.928Z,2.03
2023-01-10T15:00:12.011Z,7.95
2023-01-10T15:02:59.729Z,10.38
2023-01-10T15:05:48.196Z,3.83
2023-01-10T15:08:34.162Z,2.78
2023-01-10T15:11:21.785Z,3.35
2023-01-10T15:14:10.995Z,2.75
2023-01-10T15:17:02.168Z,4.40
2023-01-10T15:19:53.773Z,9.50
2023-01-10T15:22:39.748Z,3.35
2023-01-10T15:25:29.992Z,1.60
2023-01-10T15:28:17.778Z,4.63
2023-01-10T15:31:05.455Z,3.92
2023-01-10T15:33:56.702Z,3.15
2023-01-10T15:37:06.578Z,3.60
2023-01-10T15:39:54.119Z,2.38
2023-01-10T15:42:40.220Z,3.60
2023-01-10T15:45:47.215Z,6.47
2023-01-10T15:48:40.156Z,6.90
2023-01-10T15:51:38.824Z,4.43
2023-01-10T15:54:24.493Z,5.75
2023-01-10T15:57:41.138Z,27.42
2023-01-10T16:00:27.554Z,8.60
2023-01-10T16:03:27.698Z,2.55
2023-01-10T16:06:25.543Z,2.20
2023-01-10T16:09:20.395Z,1.95
2023-01-10T16:12:31.161Z,2.92
2023-01-10T16:15:39.320Z,2.45
2023-01-10T16:18:25.631Z,1.73
2023-01-10T16:21:14.328Z,1.77
2023-01-10T16:24:04.864Z,2.70
2023-01-10T16:26:51.341Z,2.47
2023-01-10T16:29:37.992Z,2.92
2023-01-10T16:32:23.829Z,4.07
2023-01-10T16:35:09.902Z,2.10
2023-01-10T16:37:57.666Z,2.45
2023-01-10T16:40:48.835Z,2.42
2023-01-10T16:43:34.665Z,3.63
2023-01-10T16:46:20.360Z,2.60
2023-01-10T16:49:07.784Z,4.05
2023-01-10T16:51:54.081Z,3.05
2023-01-10T16:54:39.690Z,2.53
2023-01-10T16:57:26.683Z,2.55
2023-01-10T17:00:16.052Z,3.42
2023-01-10T17:03:03.992Z,3.95
2023-01-10T17:05:50.599Z,4.88
2023-01-10T17:08:36.271Z,7.82
2023-01-10T17:11:25.283Z,4.10
2023-01-10T17:14:14.767Z,2.40
2023-01-10T17:17:03.168Z,4.25
2023-01-10T17:19:48.924Z,4.13
2023-01-10T17:22:34.685Z,2.85
2023-01-10T17:25:20.867Z,2.75
2023-01-10T17:28:06.331Z,4.28
2023-01-10T17:30:52.278Z,3.22
2023-01-10T17:33:38.179Z,2.55
2023-01-10T17:36:29.072Z,2.88
2023-01-10T17:39:15.151Z,4.13
2023-01-10T17:42:00.955Z,2.83
2023-01-10T17:44:46.635Z,3.65
2023-01-10T17:47:32.427Z,24.15
2023-01-10T17:50:18.325Z,21.88
2023-01-10T17:53:04.646Z,33.67
2023-01-10T17:55:51.095Z,8.65
2023-01-10T17:58:37.078Z,38.20
2023-01-10T18:01:25.729Z,16.25
2023-01-10T18:04:12.908Z,8.43
2023-01-10T18:06:58.812Z,4.70
2023-01-10T18:09:44.541Z,4.45
2023-01-10T18:12:30.351Z,4.18
2023-01-10T18:15:16.024Z,4.90
2023-01-10T18:18:01.678Z,3.08
2023-01-10T18:20:47.414Z,3.60
2023-01-10T18:23:33.904Z,3.10
2023-01-10T18:26:20.849Z,2.95
2023-01-10T18:29:06.994Z,3.65
2023-01-10T18:31:53.643Z,2.30
2023-01-10T18:34:39.704Z,4.65
2023-01-10T18:37:25.448Z,3.85
2023-01-10T18:40:12.205Z,3.13
2023-01-10T18:42:59.085Z,4.05
2023-01-10T18:46:01.737Z,4.60
2023-01-10T18:49:00.284Z,2.70
2023-01-10T18:51:47.037Z,3.88
2023-01-10T18:54:32.945Z,2.47
2023-01-10T18:57:19.466Z,2.95
2023-01-10T19:00:11.075Z,2.05
2023-01-10T19:02:59.593Z,4.97
2023-01-10T19:05:45.407Z,2.63
2023-01-10T19:08:32.696Z,4.78
2023-01-10T19:11:22.042Z,22.02
2023-01-10T19:14:40.283Z,20.33
2023-01-10T19:17:27.860Z,3.35
2023-01-10T19:20:16.422Z,6.68
2023-01-10T19:23:09.711Z,3.08
2023-01-10T19:25:56.699Z,4.60
2023-01-10T19:28:43.851Z,2.47
2023-01-10T19:31:29.843Z,4.30
2023-01-10T19:34:16.623Z,3.50
2023-01-10T19:37:03.380Z,2.22
2023-01-10T19:39:49.510Z,3.55
2023-01-10T19:42:37.455Z,5.47
2023-01-10T19:45:23.042Z,4.20
2023-01-10T19:48:08.736Z,2.67
2023-01-10T19:50:54.834Z,5.97
2023-01-10T19:53:45.507Z,3.25
2023-01-10T19:56:37.654Z,2.28
2023-01-10T19:59:24.035Z,2.38
2023-01-10T20:02:13.186Z,5.63
2023-01-10T20:04:59.058Z,1.85
2023-01-10T20:07:49.243Z,1.95
2023-01-10T20:10:35.315Z,3.00
2023-01-10T20:13:21.314Z,2.85
2023-01-10T20:16:07.428Z,2.25
2023-01-10T20:18:53.614Z,1.88
2023-01-10T20:21:40.908Z,4.13
2023-01-10T20:24:27.240Z,2.95
2023-01-10T20:27:13.287Z,3.47
2023-01-10T20:29:59.067Z,3.08
2023-01-10T20:32:44.861Z,2.03
2023-01-10T20:35:30.541Z,4.50
2023-01-10T20:38:16.149Z,5.00
2023-01-10T20:41:07.978Z,2.45
2023-01-10T20:43:58.638Z,2.47
2023-01-10T20:46:44.570Z,6.07
2023-01-10T20:49:34.644Z,5.93
2023-01-10T20:52:20.383Z,4.68
2023-01-10T20:55:06.399Z,4.00
2023-01-10T20:57:52.578Z,5.75
2023-01-10T21:00:42.593Z,5.30
2023-01-10T21:03:29.385Z,3.30
2023-01-10T21:06:18.541Z,6.60
2023-01-10T21:09:37.330Z,10.90
2023-01-10T21:12:31.790Z,11.13
2023-01-10T21:15:18.799Z,7.30
2023-01-10T21:18:04.648Z,8.38
2023-01-10T21:20:54.593Z,4.47
2023-01-10T21:23:40.853Z,7.25
2023-01-10T21:26:26.871Z,4.47
2023-01-10T21:29:19.061Z,4.68
2023-01-10T21:32:06.232Z,6.55
2023-01-10T21:34:52.087Z,5.13
2023-01-10T21:37:37.696Z,4.55
2023-01-10T21:40:25.250Z,4.95
2023-01-10T21:43:11.293Z,9.75
2023-01-10T21:46:00.420Z,4.72
2023-01-10T21:48:46.539Z,2.53
2023-01-10T21:51:32.645Z,9.02
2023-01-10T21:54:18.313Z,5.13
2023-01-10T21:57:04.076Z,3.80
2023-01-10T21:59:50.908Z,2.75
2023-01-10T22:02:36.626Z,3.03
2023-01-10T22:05:22.374Z,3.13
2023-01-10T22:08:08.073Z,4.95
2023-01-10T22:10:53.676Z,4.32
2023-01-10T22:13:39.484Z,3.08
2023-01-10T22:16:25.349Z,3.95
2023-01-10T22:19:12.899Z,3.13
2023-01-10T22:21:58.542Z,2.63
2023-01-10T22:24:46.885Z,7.07
2023-01-10T22:27:32.636Z,3.55
2023-01-10T22:30:18.473Z,3.03
2023-01-10T22:33:04.266Z,4.15
2023-01-10T22:35:49.961Z,3.53
2023-01-10T22:38:35.698Z,3.55
2023-01-10T22:41:27.314Z,6.70
2023-01-10T22:44:19.093Z,9.10
2023-01-10T22:47:04.998Z,5.53
2023-01-10T22:49:51.970Z,6.43
2023-01-10T22:52:37.493Z,4.72
2023-01-10T22:55:23.194Z,4.60
2023-01-10T22:58:08.911Z,3.90
2023-01-10T23:00:54.683Z,4.25
2023-01-10T23:03:40.420Z,3.70
2023-01-10T23:06:26.165Z,2.88
2023-01-10T23:09:12.060Z,3.70
2023-01-10T23:11:58.017Z,2.88
2023-01-10T23:14:43.742Z,2.53
2023-01-10T23:17:29.585Z,5.55
2023-01-10T23:20:16.792Z,5.75
2023-01-10T23:23:02.463Z,2.28
2023-01-10T23:26:01.602Z,4.45
2023-01-10T23:28:49.844Z,3.13
2023-01-10T23:31:35.629Z,2.42
2023-01-10T23:34:21.294Z,4.80
2023-01-10T23:37:06.783Z,2.47
2023-01-10T23:39:52.475Z,2.20
2023-01-10T23:42:38.242Z,4.90
2023-01-10T23:45:34.287Z,3.88
2023-01-10T23:48:28.288Z,2.28
2023-01-10T23:51:24.922Z,2.53
2023-01-10T23:54:17.408Z,2.47
2023-01-10T23:57:03.551Z,2.53
